sensor_id;sensor_type;location;lat;lon;timestamp;P1;durP1;ratioP1;P2;durP2;ratioP2
1048;SDS011;513;51.444;7.196;2023-04-15T00:01:57;10.43;;;8.00;;
1048;SDS011;513;51.444;7.196;2023-04-15T00:04:24;12.73;;;8.13;;
1048;SDS011;513;51.444;7.196;2023-04-15T00:06:51;12.32;;;8.88;;
1048;SDS011;513;51.444;7.196;2023-04-15T00:09:19;11.77;;;7.78;;
1048;SDS011;513;51.444;7.196;2023-04-15T00:11:46;11.35;;;7.85;;
1048;SDS011;513;51.444;7.196;2023-04-15T00:14:14;10.90;;;7.65;;
1048;SDS011;513;51.444;7.196;2023-04-15T00:16:41;11.57;;;8.48;;
1048;SDS011;513;51.444;7.196;2023-04-15T00:19:07;11.45;;;8.23;;
1048;SDS011;513;51.444;7.196;2023-04-15T00:21:34;13.07;;;8.13;;
1048;SDS011;513;51.444;7.196;2023-04-15T00:24:01;12.00;;;8.50;;
1048;SDS011;513;51.444;7.196;2023-04-15T00:26:27;12.13;;;8.40;;
1048;SDS011;513;51.444;7.196;2023-04-15T00:28:54;11.93;;;7.88;;
1048;SDS011;513;51.444;7.196;2023-04-15T00:31:22;11.50;;;7.45;;
1048;SDS011;513;51.444;7.196;2023-04-15T00:33:49;10.50;;;7.03;;
1048;SDS011;513;51.444;7.196;2023-04-15T00:36:16;11.03;;;8.00;;
1048;SDS011;513;51.444;7.196;2023-04-15T00:38:43;16.80;;;12.57;;
1048;SDS011;513;51.444;7.196;2023-04-15T00:41:10;14.10;;;9.00;;
1048;SDS011;513;51.444;7.196;2023-04-15T00:43:37;13.20;;;9.30;;
1048;SDS011;513;51.444;7.196;2023-04-15T00:46:04;13.13;;;9.65;;
1048;SDS011;513;51.444;7.196;2023-04-15T00:48:33;12.10;;;9.80;;
1048;SDS011;513;51.444;7.196;2023-04-15T00:51:00;12.60;;;9.13;;
1048;SDS011;513;51.444;7.196;2023-04-15T00:53:26;14.63;;;9.77;;
1048;SDS011;513;51.444;7.196;2023-04-15T00:55:53;15.13;;;10.70;;
1048;SDS011;513;51.444;7.196;2023-04-15T00:58:20;14.13;;;10.82;;
1048;SDS011;513;51.444;7.196;2023-04-15T01:00:47;14.02;;;10.73;;
1048;SDS011;513;51.444;7.196;2023-04-15T01:03:18;14.88;;;11.50;;
1048;SDS011;513;51.444;7.196;2023-04-15T01:05:46;16.92;;;12.13;;
1048;SDS011;513;51.444;7.196;2023-04-15T01:08:12;15.60;;;11.75;;
1048;SDS011;513;51.444;7.196;2023-04-15T01:10:39;17.08;;;12.63;;
1048;SDS011;513;51.444;7.196;2023-04-15T01:13:06;18.70;;;13.13;;
1048;SDS011;513;51.444;7.196;2023-04-15T01:15:34;18.75;;;13.60;;
1048;SDS011;513;51.444;7.196;2023-04-15T01:18:01;15.77;;;12.65;;
1048;SDS011;513;51.444;7.196;2023-04-15T01:20:28;16.38;;;13.02;;
1048;SDS011;513;51.444;7.196;2023-04-15T01:22:56;17.65;;;13.20;;
1048;SDS011;513;51.444;7.196;2023-04-15T01:25:29;18.58;;;13.30;;
1048;SDS011;513;51.444;7.196;2023-04-15T01:27:57;18.58;;;13.52;;
1048;SDS011;513;51.444;7.196;2023-04-15T01:30:24;23.00;;;14.43;;
1048;SDS011;513;51.444;7.196;2023-04-15T01:32:51;20.10;;;13.50;;
1048;SDS011;513;51.444;7.196;2023-04-15T01:35:17;18.90;;;13.98;;
1048;SDS011;513;51.444;7.196;2023-04-15T01:37:45;16.90;;;12.98;;
1048;SDS011;513;51.444;7.196;2023-04-15T01:40:12;17.57;;;13.27;;
1048;SDS011;513;51.444;7.196;2023-04-15T01:42:40;17.45;;;13.55;;
1048;SDS011;513;51.444;7.196;2023-04-15T01:45:07;18.13;;;13.05;;
1048;SDS011;513;51.444;7.196;2023-04-15T01:47:34;21.95;;;13.68;;
1048;SDS011;513;51.444;7.196;2023-04-15T01:50:01;19.27;;;14.18;;
1048;SDS011;513;51.444;7.196;2023-04-15T01:52:28;19.23;;;13.82;;
1048;SDS011;513;51.444;7.196;2023-04-15T01:54:56;19.50;;;14.20;;
1048;SDS011;513;51.444;7.196;2023-04-15T01:57:22;19.25;;;14.75;;
1048;SDS011;513;51.444;7.196;2023-04-15T01:59:50;16.73;;;13.77;;
1048;SDS011;513;51.444;7.196;2023-04-15T02:02:17;18.27;;;13.43;;
1048;SDS011;513;51.444;7.196;2023-04-15T02:04:43;22.02;;;14.18;;
1048;SDS011;513;51.444;7.196;2023-04-15T02:07:10;16.77;;;12.93;;
1048;SDS011;513;51.444;7.196;2023-04-15T02:09:37;19.55;;;14.48;;
1048;SDS011;513;51.444;7.196;2023-04-15T02:12:03;18.25;;;13.02;;
1048;SDS011;513;51.444;7.196;2023-04-15T02:14:30;18.27;;;14.03;;
1048;SDS011;513;51.444;7.196;2023-04-15T02:16:58;19.75;;;14.80;;
1048;SDS011;513;51.444;7.196;2023-04-15T02:19:31;19.57;;;15.13;;
1048;SDS011;513;51.444;7.196;2023-04-15T02:21:57;20.08;;;14.50;;
1048;SDS011;513;51.444;7.196;2023-04-15T02:24:25;18.42;;;14.77;;
1048;SDS011;513;51.444;7.196;2023-04-15T02:26:52;17.33;;;14.23;;
1048;SDS011;513;51.444;7.196;2023-04-15T02:29:19;19.50;;;15.88;;
1048;SDS011;513;51.444;7.196;2023-04-15T02:31:46;21.90;;;16.17;;
1048;SDS011;513;51.444;7.196;2023-04-15T02:34:14;20.98;;;16.60;;
1048;SDS011;513;51.444;7.196;2023-04-15T02:36:41;20.85;;;16.17;;
1048;SDS011;513;51.444;7.196;2023-04-15T02:39:08;21.95;;;14.85;;
1048;SDS011;513;51.444;7.196;2023-04-15T02:41:35;20.48;;;15.18;;
1048;SDS011;513;51.444;7.196;2023-04-15T02:44:01;21.38;;;15.48;;
1048;SDS011;513;51.444;7.196;2023-04-15T02:46:28;18.60;;;15.32;;
1048;SDS011;513;51.444;7.196;2023-04-15T02:48:55;19.90;;;15.30;;
1048;SDS011;513;51.444;7.196;2023-04-15T02:51:24;25.52;;;16.42;;
1048;SDS011;513;51.444;7.196;2023-04-15T02:53:55;20.57;;;16.47;;
1048;SDS011;513;51.444;7.196;2023-04-15T02:56:21;19.73;;;15.05;;
1048;SDS011;513;51.444;7.196;2023-04-15T02:58:48;21.13;;;14.93;;
1048;SDS011;513;51.444;7.196;2023-04-15T03:01:15;19.70;;;15.07;;
1048;SDS011;513;51.444;7.196;2023-04-15T03:03:42;24.13;;;16.50;;
1048;SDS011;513;51.444;7.196;2023-04-15T03:06:08;22.50;;;17.08;;
1048;SDS011;513;51.444;7.196;2023-04-15T03:08:37;22.42;;;17.13;;
1048;SDS011;513;51.444;7.196;2023-04-15T03:11:03;23.55;;;18.33;;
1048;SDS011;513;51.444;7.196;2023-04-15T03:13:31;24.83;;;18.48;;
1048;SDS011;513;51.444;7.196;2023-04-15T03:15:58;24.13;;;19.50;;
1048;SDS011;513;51.444;7.196;2023-04-15T03:18:24;24.30;;;19.83;;
1048;SDS011;513;51.444;7.196;2023-04-15T03:20:52;24.30;;;19.35;;
1048;SDS011;513;51.444;7.196;2023-04-15T03:23:19;26.20;;;19.30;;
1048;SDS011;513;51.444;7.196;2023-04-15T03:25:47;24.48;;;19.77;;
1048;SDS011;513;51.444;7.196;2023-04-15T03:28:13;27.30;;;19.98;;
1048;SDS011;513;51.444;7.196;2023-04-15T03:30:40;26.52;;;19.85;;
1048;SDS011;513;51.444;7.196;2023-04-15T03:33:07;25.55;;;19.33;;
1048;SDS011;513;51.444;7.196;2023-04-15T03:35:33;24.40;;;19.58;;
1048;SDS011;513;51.444;7.196;2023-04-15T03:38:00;25.38;;;19.98;;
1048;SDS011;513;51.444;7.196;2023-04-15T03:40:27;23.83;;;19.53;;
1048;SDS011;513;51.444;7.196;2023-04-15T03:42:55;25.63;;;20.02;;
1048;SDS011;513;51.444;7.196;2023-04-15T03:45:21;26.95;;;19.98;;
1048;SDS011;513;51.444;7.196;2023-04-15T03:47:48;26.75;;;20.33;;
1048;SDS011;513;51.444;7.196;2023-04-15T03:50:15;28.52;;;21.10;;
1048;SDS011;513;51.444;7.196;2023-04-15T03:52:42;24.67;;;20.63;;
1048;SDS011;513;51.444;7.196;2023-04-15T03:55:09;28.35;;;21.25;;
1048;SDS011;513;51.444;7.196;2023-04-15T03:57:36;27.88;;;22.15;;
1048;SDS011;513;51.444;7.196;2023-04-15T04:00:05;26.33;;;20.48;;
1048;SDS011;513;51.444;7.196;2023-04-15T04:02:34;28.95;;;21.48;;
1048;SDS011;513;51.444;7.196;2023-04-15T04:05:01;26.38;;;21.15;;
1048;SDS011;513;51.444;7.196;2023-04-15T04:07:27;26.90;;;20.60;;
1048;SDS011;513;51.444;7.196;2023-04-15T04:09:56;28.20;;;20.83;;
1048;SDS011;513;51.444;7.196;2023-04-15T04:12:23;27.35;;;21.15;;
1048;SDS011;513;51.444;7.196;2023-04-15T04:14:49;26.27;;;20.47;;
1048;SDS011;513;51.444;7.196;2023-04-15T04:17:17;28.08;;;21.08;;
1048;SDS011;513;51.444;7.196;2023-04-15T04:19:44;26.55;;;21.40;;
1048;SDS011;513;51.444;7.196;2023-04-15T04:22:11;26.83;;;20.92;;
1048;SDS011;513;51.444;7.196;2023-04-15T04:24:37;26.90;;;21.07;;
1048;SDS011;513;51.444;7.196;2023-04-15T04:27:04;27.23;;;20.83;;
1048;SDS011;513;51.444;7.196;2023-04-15T04:29:31;28.52;;;21.17;;
1048;SDS011;513;51.444;7.196;2023-04-15T04:31:57;27.23;;;20.92;;
1048;SDS011;513;51.444;7.196;2023-04-15T04:34:25;28.55;;;22.10;;
1048;SDS011;513;51.444;7.196;2023-04-15T04:36:52;29.48;;;21.83;;
1048;SDS011;513;51.444;7.196;2023-04-15T04:39:19;30.15;;;23.52;;
1048;SDS011;513;51.444;7.196;2023-04-15T04:41:45;27.67;;;21.52;;
1048;SDS011;513;51.444;7.196;2023-04-15T04:44:12;28.25;;;21.45;;
1048;SDS011;513;51.444;7.196;2023-04-15T04:46:38;29.77;;;21.85;;
1048;SDS011;513;51.444;7.196;2023-04-15T04:49:05;28.52;;;21.85;;
1048;SDS011;513;51.444;7.196;2023-04-15T04:51:33;28.50;;;22.17;;
1048;SDS011;513;51.444;7.196;2023-04-15T04:54:00;30.38;;;22.25;;
1048;SDS011;513;51.444;7.196;2023-04-15T04:56:27;32.03;;;22.67;;
1048;SDS011;513;51.444;7.196;2023-04-15T04:58:53;30.23;;;22.58;;
1048;SDS011;513;51.444;7.196;2023-04-15T05:01:20;30.77;;;23.40;;
1048;SDS011;513;51.444;7.196;2023-04-15T05:03:47;31.42;;;22.92;;
1048;SDS011;513;51.444;7.196;2023-04-15T05:06:13;29.00;;;23.08;;
1048;SDS011;513;51.444;7.196;2023-04-15T05:08:41;30.60;;;22.83;;
1048;SDS011;513;51.444;7.196;2023-04-15T05:11:08;29.98;;;22.67;;
1048;SDS011;513;51.444;7.196;2023-04-15T05:13:35;29.35;;;22.75;;
1048;SDS011;513;51.444;7.196;2023-04-15T05:16:02;32.17;;;22.77;;
1048;SDS011;513;51.444;7.196;2023-04-15T05:18:29;28.85;;;21.73;;
1048;SDS011;513;51.444;7.196;2023-04-15T05:20:56;29.53;;;22.50;;
1048;SDS011;513;51.444;7.196;2023-04-15T05:23:23;29.23;;;21.83;;
1048;SDS011;513;51.444;7.196;2023-04-15T05:25:51;28.80;;;21.88;;
1048;SDS011;513;51.444;7.196;2023-04-15T05:28:18;27.05;;;20.95;;
1048;SDS011;513;51.444;7.196;2023-04-15T05:30:45;29.95;;;23.10;;
1048;SDS011;513;51.444;7.196;2023-04-15T05:33:11;28.10;;;21.38;;
1048;SDS011;513;51.444;7.196;2023-04-15T05:35:38;29.60;;;22.17;;
1048;SDS011;513;51.444;7.196;2023-04-15T05:38:05;28.52;;;21.88;;
1048;SDS011;513;51.444;7.196;2023-04-15T05:40:32;27.85;;;21.73;;
1048;SDS011;513;51.444;7.196;2023-04-15T05:43:00;31.98;;;21.75;;
1048;SDS011;513;51.444;7.196;2023-04-15T05:45:26;27.45;;;22.13;;
1048;SDS011;513;51.444;7.196;2023-04-15T05:47:53;29.08;;;22.95;;
1048;SDS011;513;51.444;7.196;2023-04-15T05:50:20;29.58;;;21.00;;
1048;SDS011;513;51.444;7.196;2023-04-15T05:52:46;26.83;;;20.73;;
1048;SDS011;513;51.444;7.196;2023-04-15T05:55:13;25.65;;;20.00;;
1048;SDS011;513;51.444;7.196;2023-04-15T05:57:40;29.15;;;21.52;;
1048;SDS011;513;51.444;7.196;2023-04-15T06:00:08;27.55;;;22.40;;
1048;SDS011;513;51.444;7.196;2023-04-15T06:02:36;28.95;;;21.98;;
1048;SDS011;513;51.444;7.196;2023-04-15T06:05:02;29.80;;;21.85;;
1048;SDS011;513;51.444;7.196;2023-04-15T06:07:33;31.17;;;21.60;;
1048;SDS011;513;51.444;7.196;2023-04-15T06:10:00;25.98;;;22.58;;
1048;SDS011;513;51.444;7.196;2023-04-15T06:12:27;27.50;;;22.08;;
1048;SDS011;513;51.444;7.196;2023-04-15T06:14:53;28.65;;;23.30;;
1048;SDS011;513;51.444;7.196;2023-04-15T06:17:22;27.42;;;22.92;;
1048;SDS011;513;51.444;7.196;2023-04-15T06:19:49;29.13;;;23.40;;
1048;SDS011;513;51.444;7.196;2023-04-15T06:22:19;30.10;;;24.90;;
1048;SDS011;513;51.444;7.196;2023-04-15T06:24:46;30.80;;;25.00;;
1048;SDS011;513;51.444;7.196;2023-04-15T06:27:13;28.83;;;24.17;;
1048;SDS011;513;51.444;7.196;2023-04-15T06:29:40;32.63;;;25.20;;
1048;SDS011;513;51.444;7.196;2023-04-15T06:32:06;32.22;;;25.23;;
1048;SDS011;513;51.444;7.196;2023-04-15T06:34:34;29.60;;;24.15;;
1048;SDS011;513;51.444;7.196;2023-04-15T06:37:01;29.85;;;25.23;;
1048;SDS011;513;51.444;7.196;2023-04-15T06:39:27;29.83;;;25.05;;
1048;SDS011;513;51.444;7.196;2023-04-15T06:41:54;28.52;;;24.80;;
1048;SDS011;513;51.444;7.196;2023-04-15T06:44:21;28.40;;;23.48;;
1048;SDS011;513;51.444;7.196;2023-04-15T06:46:48;28.33;;;22.40;;
1048;SDS011;513;51.444;7.196;2023-04-15T06:49:14;26.35;;;21.90;;
1048;SDS011;513;51.444;7.196;2023-04-15T06:51:43;27.48;;;20.60;;
1048;SDS011;513;51.444;7.196;2023-04-15T06:54:09;28.27;;;20.98;;
1048;SDS011;513;51.444;7.196;2023-04-15T06:56:36;26.20;;;20.67;;
1048;SDS011;513;51.444;7.196;2023-04-15T06:59:03;25.47;;;21.77;;
1048;SDS011;513;51.444;7.196;2023-04-15T07:01:29;24.52;;;20.95;;
1048;SDS011;513;51.444;7.196;2023-04-15T07:03:56;24.48;;;19.95;;
1048;SDS011;513;51.444;7.196;2023-04-15T07:06:23;26.70;;;20.30;;
1048;SDS011;513;51.444;7.196;2023-04-15T07:08:51;24.55;;;19.80;;
1048;SDS011;513;51.444;7.196;2023-04-15T07:11:18;25.45;;;19.52;;
1048;SDS011;513;51.444;7.196;2023-04-15T07:13:45;23.75;;;18.67;;
1048;SDS011;513;51.444;7.196;2023-04-15T07:16:11;26.75;;;18.48;;
1048;SDS011;513;51.444;7.196;2023-04-15T07:18:38;23.40;;;18.85;;
1048;SDS011;513;51.444;7.196;2023-04-15T07:21:05;24.75;;;19.52;;
1048;SDS011;513;51.444;7.196;2023-04-15T07:23:31;21.77;;;18.00;;
1048;SDS011;513;51.444;7.196;2023-04-15T07:25:59;21.80;;;18.13;;
1048;SDS011;513;51.444;7.196;2023-04-15T07:28:26;24.88;;;18.52;;
1048;SDS011;513;51.444;7.196;2023-04-15T07:30:53;22.40;;;17.77;;
1048;SDS011;513;51.444;7.196;2023-04-15T07:33:21;21.60;;;17.05;;
1048;SDS011;513;51.444;7.196;2023-04-15T07:35:47;20.05;;;16.17;;
1048;SDS011;513;51.444;7.196;2023-04-15T07:38:14;20.42;;;15.70;;
1048;SDS011;513;51.444;7.196;2023-04-15T07:40:41;20.20;;;15.98;;
1048;SDS011;513;51.444;7.196;2023-04-15T07:43:09;21.92;;;15.88;;
1048;SDS011;513;51.444;7.196;2023-04-15T07:45:37;19.58;;;15.95;;
1048;SDS011;513;51.444;7.196;2023-04-15T07:48:04;20.35;;;15.45;;
1048;SDS011;513;51.444;7.196;2023-04-15T07:50:32;20.85;;;15.68;;
1048;SDS011;513;51.444;7.196;2023-04-15T07:52:58;17.70;;;13.65;;
1048;SDS011;513;51.444;7.196;2023-04-15T07:55:25;16.80;;;13.57;;
1048;SDS011;513;51.444;7.196;2023-04-15T07:57:52;18.00;;;13.05;;
1048;SDS011;513;51.444;7.196;2023-04-15T08:00:20;18.17;;;14.15;;
1048;SDS011;513;51.444;7.196;2023-04-15T08:02:47;17.33;;;13.30;;
1048;SDS011;513;51.444;7.196;2023-04-15T08:05:16;12.98;;;10.45;;
1048;SDS011;513;51.444;7.196;2023-04-15T08:07:43;12.52;;;10.18;;
1048;SDS011;513;51.444;7.196;2023-04-15T08:10:10;10.98;;;9.02;;
1048;SDS011;513;51.444;7.196;2023-04-15T08:12:37;10.20;;;9.10;;
1048;SDS011;513;51.444;7.196;2023-04-15T08:15:04;12.35;;;9.00;;
1048;SDS011;513;51.444;7.196;2023-04-15T08:17:33;12.23;;;9.25;;
1048;SDS011;513;51.444;7.196;2023-04-15T08:20:00;11.57;;;9.23;;
1048;SDS011;513;51.444;7.196;2023-04-15T08:22:26;10.65;;;9.15;;
1048;SDS011;513;51.444;7.196;2023-04-15T08:24:53;10.82;;;8.50;;
1048;SDS011;513;51.444;7.196;2023-04-15T08:27:20;10.93;;;8.65;;
1048;SDS011;513;51.444;7.196;2023-04-15T08:29:47;11.73;;;9.38;;
1048;SDS011;513;51.444;7.196;2023-04-15T08:32:13;11.52;;;9.00;;
1048;SDS011;513;51.444;7.196;2023-04-15T08:34:42;9.77;;;8.10;;
1048;SDS011;513;51.444;7.196;2023-04-15T08:37:08;9.02;;;7.32;;
1048;SDS011;513;51.444;7.196;2023-04-15T08:39:35;10.70;;;7.90;;
1048;SDS011;513;51.444;7.196;2023-04-15T08:42:02;10.25;;;8.65;;
1048;SDS011;513;51.444;7.196;2023-04-15T08:44:32;9.68;;;8.38;;
1048;SDS011;513;51.444;7.196;2023-04-15T08:47:01;9.55;;;8.20;;
1048;SDS011;513;51.444;7.196;2023-04-15T08:49:29;10.15;;;8.15;;
1048;SDS011;513;51.444;7.196;2023-04-15T08:51:59;9.93;;;7.90;;
1048;SDS011;513;51.444;7.196;2023-04-15T08:54:26;9.40;;;7.80;;
1048;SDS011;513;51.444;7.196;2023-04-15T08:56:53;9.15;;;7.47;;
1048;SDS011;513;51.444;7.196;2023-04-15T08:59:20;10.43;;;7.63;;
1048;SDS011;513;51.444;7.196;2023-04-15T09:01:47;8.85;;;7.28;;
1048;SDS011;513;51.444;7.196;2023-04-15T09:04:14;12.02;;;8.00;;
1048;SDS011;513;51.444;7.196;2023-04-15T09:06:42;8.45;;;6.50;;
1048;SDS011;513;51.444;7.196;2023-04-15T09:09:10;8.75;;;6.85;;
1048;SDS011;513;51.444;7.196;2023-04-15T09:11:38;7.20;;;5.80;;
1048;SDS011;513;51.444;7.196;2023-04-15T09:14:04;6.93;;;5.00;;
1048;SDS011;513;51.444;7.196;2023-04-15T09:16:31;6.30;;;5.43;;
1048;SDS011;513;51.444;7.196;2023-04-15T09:19:23;8.53;;;6.50;;
1048;SDS011;513;51.444;7.196;2023-04-15T09:21:50;7.07;;;6.20;;
1048;SDS011;513;51.444;7.196;2023-04-15T09:24:18;7.18;;;5.82;;
1048;SDS011;513;51.444;7.196;2023-04-15T09:26:45;6.65;;;5.72;;
1048;SDS011;513;51.444;7.196;2023-04-15T09:29:12;7.00;;;5.23;;
1048;SDS011;513;51.444;7.196;2023-04-15T09:31:39;5.65;;;5.05;;
1048;SDS011;513;51.444;7.196;2023-04-15T09:34:07;5.97;;;5.38;;
1048;SDS011;513;51.444;7.196;2023-04-15T09:36:37;7.10;;;6.40;;
1048;SDS011;513;51.444;7.196;2023-04-15T09:39:17;6.60;;;5.70;;
1048;SDS011;513;51.444;7.196;2023-04-15T09:41:44;7.65;;;6.43;;
1048;SDS011;513;51.444;7.196;2023-04-15T09:44:21;7.97;;;6.80;;
1048;SDS011;513;51.444;7.196;2023-04-15T09:46:48;7.38;;;6.32;;
1048;SDS011;513;51.444;7.196;2023-04-15T09:49:16;7.22;;;6.38;;
1048;SDS011;513;51.444;7.196;2023-04-15T09:51:43;7.80;;;6.57;;
1048;SDS011;513;51.444;7.196;2023-04-15T09:54:10;8.20;;;7.20;;
1048;SDS011;513;51.444;7.196;2023-04-15T09:56:37;7.53;;;6.20;;
1048;SDS011;513;51.444;7.196;2023-04-15T09:59:06;8.43;;;7.53;;
1048;SDS011;513;51.444;7.196;2023-04-15T10:01:33;8.18;;;7.05;;
1048;SDS011;513;51.444;7.196;2023-04-15T10:04:00;9.45;;;8.32;;
1048;SDS011;513;51.444;7.196;2023-04-15T10:06:30;8.50;;;7.60;;
1048;SDS011;513;51.444;7.196;2023-04-15T10:08:57;8.38;;;7.47;;
1048;SDS011;513;51.444;7.196;2023-04-15T10:11:25;9.90;;;7.50;;
1048;SDS011;513;51.444;7.196;2023-04-15T10:13:54;8.77;;;7.30;;
1048;SDS011;513;51.444;7.196;2023-04-15T10:16:22;8.07;;;6.57;;
1048;SDS011;513;51.444;7.196;2023-04-15T10:18:53;8.00;;;7.20;;
1048;SDS011;513;51.444;7.196;2023-04-15T10:21:21;7.95;;;7.13;;
1048;SDS011;513;51.444;7.196;2023-04-15T10:23:49;9.50;;;7.50;;
1048;SDS011;513;51.444;7.196;2023-04-15T10:26:16;8.23;;;7.40;;
1048;SDS011;513;51.444;7.196;2023-04-15T10:28:43;7.80;;;6.63;;
1048;SDS011;513;51.444;7.196;2023-04-15T10:31:12;8.35;;;7.15;;
1048;SDS011;513;51.444;7.196;2023-04-15T10:33:39;6.72;;;6.03;;
1048;SDS011;513;51.444;7.196;2023-04-15T10:36:07;7.32;;;5.90;;
1048;SDS011;513;51.444;7.196;2023-04-15T10:38:35;7.95;;;6.32;;
1048;SDS011;513;51.444;7.196;2023-04-15T10:41:14;7.40;;;5.63;;
1048;SDS011;513;51.444;7.196;2023-04-15T10:43:46;6.30;;;5.50;;
1048;SDS011;513;51.444;7.196;2023-04-15T10:46:16;6.82;;;5.40;;
1048;SDS011;513;51.444;7.196;2023-04-15T10:48:47;7.05;;;5.40;;
1048;SDS011;513;51.444;7.196;2023-04-15T10:51:15;7.05;;;4.93;;
1048;SDS011;513;51.444;7.196;2023-04-15T10:53:53;5.95;;;5.22;;
1048;SDS011;513;51.444;7.196;2023-04-15T10:56:23;7.30;;;6.07;;
1048;SDS011;513;51.444;7.196;2023-04-15T10:58:49;7.30;;;6.18;;
1048;SDS011;513;51.444;7.196;2023-04-15T11:01:18;8.80;;;6.20;;
1048;SDS011;513;51.444;7.196;2023-04-15T11:03:46;7.33;;;6.50;;
1048;SDS011;513;51.444;7.196;2023-04-15T11:06:13;8.73;;;6.65;;
1048;SDS011;513;51.444;7.196;2023-04-15T11:08:53;8.50;;;7.07;;
1048;SDS011;513;51.444;7.196;2023-04-15T11:11:24;9.30;;;7.37;;
1048;SDS011;513;51.444;7.196;2023-04-15T11:14:31;7.93;;;7.13;;
1048;SDS011;513;51.444;7.196;2023-04-15T11:16:58;8.63;;;7.05;;
1048;SDS011;513;51.444;7.196;2023-04-15T11:19:25;6.25;;;5.28;;
1048;SDS011;513;51.444;7.196;2023-04-15T11:21:52;9.40;;;8.32;;
1048;SDS011;513;51.444;7.196;2023-04-15T11:24:22;9.35;;;7.85;;
1048;SDS011;513;51.444;7.196;2023-04-15T11:26:57;10.18;;;8.40;;
1048;SDS011;513;51.444;7.196;2023-04-15T11:29:27;9.32;;;7.35;;
1048;SDS011;513;51.444;7.196;2023-04-15T11:32:00;9.70;;;7.43;;
1048;SDS011;513;51.444;7.196;2023-04-15T11:34:30;8.55;;;7.18;;
1048;SDS011;513;51.444;7.196;2023-04-15T11:36:57;9.13;;;7.60;;
1048;SDS011;513;51.444;7.196;2023-04-15T11:39:24;9.45;;;7.40;;
1048;SDS011;513;51.444;7.196;2023-04-15T11:41:50;8.40;;;7.33;;
1048;SDS011;513;51.444;7.196;2023-04-15T11:44:18;9.70;;;8.45;;
1048;SDS011;513;51.444;7.196;2023-04-15T11:46:45;9.55;;;8.00;;
1048;SDS011;513;51.444;7.196;2023-04-15T11:49:24;9.50;;;8.07;;
1048;SDS011;513;51.444;7.196;2023-04-15T11:51:51;9.43;;;7.13;;
1048;SDS011;513;51.444;7.196;2023-04-15T11:54:18;8.95;;;7.47;;
1048;SDS011;513;51.444;7.196;2023-04-15T11:56:48;10.25;;;7.18;;
1048;SDS011;513;51.444;7.196;2023-04-15T11:59:15;8.07;;;6.72;;
1048;SDS011;513;51.444;7.196;2023-04-15T12:01:43;7.90;;;6.47;;
1048;SDS011;513;51.444;7.196;2023-04-15T12:04:11;7.45;;;6.40;;
1048;SDS011;513;51.444;7.196;2023-04-15T12:06:39;7.30;;;6.07;;
1048;SDS011;513;51.444;7.196;2023-04-15T12:09:09;7.70;;;6.67;;
1048;SDS011;513;51.444;7.196;2023-04-15T12:11:41;7.90;;;6.20;;
1048;SDS011;513;51.444;7.196;2023-04-15T12:14:15;8.07;;;6.28;;
1048;SDS011;513;51.444;7.196;2023-04-15T12:16:48;9.02;;;6.78;;
1048;SDS011;513;51.444;7.196;2023-04-15T12:19:21;7.72;;;6.30;;
1048;SDS011;513;51.444;7.196;2023-04-15T12:21:49;8.57;;;6.40;;
1048;SDS011;513;51.444;7.196;2023-04-15T12:24:18;8.07;;;6.57;;
1048;SDS011;513;51.444;7.196;2023-04-15T12:26:47;8.33;;;7.00;;
1048;SDS011;513;51.444;7.196;2023-04-15T12:29:15;7.70;;;6.63;;
1048;SDS011;513;51.444;7.196;2023-04-15T12:31:46;9.25;;;7.30;;
1048;SDS011;513;51.444;7.196;2023-04-15T12:34:16;10.00;;;7.50;;
1048;SDS011;513;51.444;7.196;2023-04-15T12:36:43;9.05;;;7.88;;
1048;SDS011;513;51.444;7.196;2023-04-15T12:39:10;9.77;;;7.57;;
1048;SDS011;513;51.444;7.196;2023-04-15T12:41:37;10.20;;;7.55;;
1048;SDS011;513;51.444;7.196;2023-04-15T12:44:04;10.55;;;8.43;;
1048;SDS011;513;51.444;7.196;2023-04-15T12:46:31;9.15;;;7.57;;
1048;SDS011;513;51.444;7.196;2023-04-15T12:49:00;8.30;;;7.20;;
1048;SDS011;513;51.444;7.196;2023-04-15T12:51:26;8.38;;;7.30;;
1048;SDS011;513;51.444;7.196;2023-04-15T12:53:53;8.57;;;6.93;;
1048;SDS011;513;51.444;7.196;2023-04-15T12:56:20;8.30;;;6.60;;
1048;SDS011;513;51.444;7.196;2023-04-15T12:58:46;8.35;;;7.07;;
1048;SDS011;513;51.444;7.196;2023-04-15T13:01:13;7.82;;;6.93;;
1048;SDS011;513;51.444;7.196;2023-04-15T13:03:40;8.38;;;6.43;;
1048;SDS011;513;51.444;7.196;2023-04-15T13:06:08;7.88;;;6.35;;
1048;SDS011;513;51.444;7.196;2023-04-15T13:08:35;7.10;;;5.82;;
1048;SDS011;513;51.444;7.196;2023-04-15T13:11:02;7.32;;;5.88;;
1048;SDS011;513;51.444;7.196;2023-04-15T13:13:29;7.97;;;6.00;;
1048;SDS011;513;51.444;7.196;2023-04-15T13:15:56;7.97;;;6.00;;
1048;SDS011;513;51.444;7.196;2023-04-15T13:18:22;8.60;;;6.15;;
1048;SDS011;513;51.444;7.196;2023-04-15T13:20:49;7.45;;;5.72;;
1048;SDS011;513;51.444;7.196;2023-04-15T13:23:17;7.72;;;5.68;;
1048;SDS011;513;51.444;7.196;2023-04-15T13:25:44;7.97;;;5.88;;
1048;SDS011;513;51.444;7.196;2023-04-15T13:28:11;8.35;;;5.75;;
1048;SDS011;513;51.444;7.196;2023-04-15T13:30:37;7.10;;;5.60;;
1048;SDS011;513;51.444;7.196;2023-04-15T13:33:04;7.45;;;6.28;;
1048;SDS011;513;51.444;7.196;2023-04-15T13:35:31;7.90;;;6.27;;
1048;SDS011;513;51.444;7.196;2023-04-15T13:37:58;8.80;;;5.90;;
1048;SDS011;513;51.444;7.196;2023-04-15T13:40:26;8.32;;;5.90;;
1048;SDS011;513;51.444;7.196;2023-04-15T13:42:52;7.38;;;6.22;;
1048;SDS011;513;51.444;7.196;2023-04-15T13:45:20;8.50;;;6.88;;
1048;SDS011;513;51.444;7.196;2023-04-15T13:47:46;7.38;;;5.85;;
1048;SDS011;513;51.444;7.196;2023-04-15T13:50:13;9.07;;;6.70;;
1048;SDS011;513;51.444;7.196;2023-04-15T13:52:40;7.30;;;6.45;;
1048;SDS011;513;51.444;7.196;2023-04-15T13:55:07;8.03;;;5.80;;
1048;SDS011;513;51.444;7.196;2023-04-15T13:57:36;9.63;;;6.80;;
1048;SDS011;513;51.444;7.196;2023-04-15T14:00:03;12.73;;;6.72;;
1048;SDS011;513;51.444;7.196;2023-04-15T14:02:30;9.50;;;7.25;;
1048;SDS011;513;51.444;7.196;2023-04-15T14:04:57;8.20;;;6.70;;
1048;SDS011;513;51.444;7.196;2023-04-15T14:07:24;9.60;;;6.63;;
1048;SDS011;513;51.444;7.196;2023-04-15T14:09:50;8.15;;;7.18;;
1048;SDS011;513;51.444;7.196;2023-04-15T14:12:17;9.75;;;7.70;;
1048;SDS011;513;51.444;7.196;2023-04-15T14:14:45;10.25;;;7.70;;
1048;SDS011;513;51.444;7.196;2023-04-15T14:17:12;9.35;;;7.63;;
1048;SDS011;513;51.444;7.196;2023-04-15T14:19:38;9.15;;;7.43;;
1048;SDS011;513;51.444;7.196;2023-04-15T14:22:05;9.45;;;7.75;;
1048;SDS011;513;51.444;7.196;2023-04-15T14:24:32;10.13;;;6.70;;
1048;SDS011;513;51.444;7.196;2023-04-15T14:26:58;8.73;;;6.68;;
1048;SDS011;513;51.444;7.196;2023-04-15T14:29:26;10.63;;;7.15;;
1048;SDS011;513;51.444;7.196;2023-04-15T14:31:54;8.63;;;7.53;;
1048;SDS011;513;51.444;7.196;2023-04-15T14:34:22;9.90;;;7.72;;
1048;SDS011;513;51.444;7.196;2023-04-15T14:36:50;10.13;;;7.65;;
1048;SDS011;513;51.444;7.196;2023-04-15T14:39:17;9.90;;;7.60;;
1048;SDS011;513;51.444;7.196;2023-04-15T14:41:44;10.57;;;8.23;;
1048;SDS011;513;51.444;7.196;2023-04-15T14:44:10;12.35;;;8.85;;
1048;SDS011;513;51.444;7.196;2023-04-15T14:46:37;11.63;;;8.90;;
1048;SDS011;513;51.444;7.196;2023-04-15T14:49:06;10.68;;;8.75;;
1048;SDS011;513;51.444;7.196;2023-04-15T14:51:32;10.20;;;8.40;;
1048;SDS011;513;51.444;7.196;2023-04-15T14:53:59;10.35;;;8.40;;
1048;SDS011;513;51.444;7.196;2023-04-15T14:56:26;9.10;;;7.35;;
1048;SDS011;513;51.444;7.196;2023-04-15T14:58:52;10.00;;;7.65;;
1048;SDS011;513;51.444;7.196;2023-04-15T15:01:19;10.35;;;7.47;;
1048;SDS011;513;51.444;7.196;2023-04-15T15:03:46;8.20;;;6.87;;
1048;SDS011;513;51.444;7.196;2023-04-15T15:06:15;8.57;;;6.50;;
1048;SDS011;513;51.444;7.196;2023-04-15T15:08:42;7.78;;;6.13;;
1048;SDS011;513;51.444;7.196;2023-04-15T15:11:08;8.25;;;6.28;;
1048;SDS011;513;51.444;7.196;2023-04-15T15:13:35;7.88;;;6.45;;
1048;SDS011;513;51.444;7.196;2023-04-15T15:16:02;7.47;;;6.78;;
1048;SDS011;513;51.444;7.196;2023-04-15T15:18:28;11.80;;;7.30;;